Time;durP1;ratioP1;P1;durP2;ratioP2;P2;SDS_P1;SDS_P2;PMS_P1;PMS_P2;Temp;Humidity;BMP_temperature;BMP_pressure;BME280_temperature;BME280_humidity;BME280_pressure;Samples;Min_cycle;Max_cycle;Signal;HPM_P1;HPM_P2
2021/06/29 00:00:21;;;;;;;22.42;20.10;;;21.00;99.90;;;;;;5047833;28;20024;-41
2021/06/29 00:02:47;;;;;;;20.52;18.48;;;20.90;99.90;;;;;;5059501;28;20091;-41
2021/06/29 00:05:13;;;;;;;22.98;20.17;;;20.90;99.90;;;;;;5047079;28;20028;-41
2021/06/29 00:07:39;;;;;;;25.63;20.67;;;20.90;99.90;;;;;;5060005;28;20028;-41
2021/06/29 00:10:07;;;;;;;22.02;19.70;;;20.90;99.90;;;;;;5047231;28;20469;-41
2021/06/29 00:12:33;;;;;;;16.88;14.60;;;20.80;99.90;;;;;;5057816;28;20063;-42
2021/06/29 00:14:58;;;;;;;20.05;17.88;;;20.80;99.90;;;;;;5048225;28;20033;-41
2021/06/29 00:17:24;;;;;;;18.23;16.35;;;20.80;99.90;;;;;;5055102;28;20488;-40
2021/06/29 00:19:49;;;;;;;17.13;15.35;;;20.80;99.90;;;;;;5051620;28;20463;-42
2021/06/29 00:22:15;;;;;;;16.77;15.07;;;20.90;99.90;;;;;;5051887;28;20081;-42
2021/06/29 00:24:40;;;;;;;19.75;15.82;;;20.80;99.90;;;;;;5053914;28;20359;-41
2021/06/29 00:27:09;;;;;;;18.45;15.45;;;20.80;99.90;;;;;;5064266;28;20028;-42
2021/06/29 00:29:44;;;;;;;15.93;14.23;;;20.80;99.90;;;;;;5057613;28;20082;-41
2021/06/29 00:32:09;;;;;;;19.15;15.82;;;20.80;99.90;;;;;;5064043;28;20028;-41
2021/06/29 00:34:35;;;;;;;19.45;17.35;;;20.90;99.90;;;;;;5056321;28;20023;-41
2021/06/29 00:37:00;;;;;;;18.80;16.42;;;20.90;99.90;;;;;;5064967;28;20024;-41
2021/06/29 00:39:26;;;;;;;20.58;17.63;;;20.90;99.90;;;;;;5055493;28;20019;-41
2021/06/29 00:41:51;;;;;;;24.05;18.42;;;20.90;99.90;;;;;;5051994;28;20416;-40
2021/06/29 00:44:21;;;;;;;18.95;16.90;;;20.80;99.90;;;;;;5053101;28;20112;-41
2021/06/29 00:46:47;;;;;;;19.70;16.50;;;20.80;99.90;;;;;;5066284;28;20024;-42
2021/06/29 00:49:13;;;;;;;18.30;15.88;;;20.90;99.90;;;;;;5054189;28;20534;-41
2021/06/29 00:51:40;;;;;;;17.33;14.63;;;20.90;99.90;;;;;;5067018;28;20543;-40
2021/06/29 00:54:15;;;;;;;19.25;16.73;;;20.90;99.90;;;;;;5054134;28;20021;-42
2021/06/29 00:56:42;;;;;;;17.73;15.32;;;20.90;99.90;;;;;;5027181;28;20566;-41
2021/06/29 00:59:08;;;;;;;16.92;15.13;;;20.90;99.90;;;;;;5051983;28;20021;-40
2021/06/29 01:01:34;;;;;;;17.15;15.00;;;21.00;99.90;;;;;;5047957;28;20035;-40
2021/06/29 01:03:59;;;;;;;17.27;13.75;;;21.00;99.90;;;;;;5054948;28;20016;-39
2021/06/29 01:06:25;;;;;;;18.05;15.30;;;21.00;99.90;;;;;;5051066;28;20093;-40
2021/06/29 01:08:51;;;;;;;16.42;14.18;;;21.00;99.90;;;;;;5052407;28;20085;-41
2021/06/29 01:11:16;;;;;;;17.40;14.20;;;21.00;99.90;;;;;;5052762;28;20037;-40
2021/06/29 01:13:44;;;;;;;17.42;14.63;;;21.00;99.90;;;;;;5048660;28;20075;-41
2021/06/29 01:16:10;;;;;;;19.35;16.25;;;21.00;99.90;;;;;;5055994;28;20025;-40
2021/06/29 01:18:38;;;;;;;15.50;13.90;;;21.00;99.90;;;;;;5048033;28;20037;-41
2021/06/29 01:21:05;;;;;;;15.90;13.50;;;21.00;99.90;;;;;;5056540;28;20515;-40
2021/06/29 01:23:35;;;;;;;15.60;13.98;;;21.00;99.90;;;;;;5047657;28;20033;-41
2021/06/29 01:26:24;;;;;;;16.35;13.80;;;21.00;99.90;;;;;;5053445;28;20075;-41
2021/06/29 01:31:17;;;;;;;13.32;11.93;;;21.00;99.90;;;;;;5057380;28;20037;-40
2021/06/29 01:33:43;;;;;;;17.48;14.00;;;21.00;99.90;;;;;;5047288;28;20071;-41
2021/06/29 01:36:12;;;;;;;15.02;13.13;;;20.90;99.90;;;;;;5057043;28;20032;-40
2021/06/29 01:38:38;;;;;;;16.30;13.25;;;20.90;99.90;;;;;;5046480;28;20455;-41
2021/06/29 01:41:03;;;;;;;16.15;14.55;;;20.90;99.90;;;;;;5058163;28;20041;-40
2021/06/29 01:43:33;;;;;;;16.42;13.05;;;21.00;99.90;;;;;;5046227;28;20048;-40
2021/06/29 01:45:58;;;;;;;18.73;14.15;;;21.00;99.90;;;;;;5060961;28;20044;-41
2021/06/29 01:48:25;;;;;;;27.48;16.88;;;21.00;99.90;;;;;;5050281;28;20045;-41
2021/06/29 01:50:52;;;;;;;28.48;18.83;;;21.00;99.90;;;;;;5059908;28;20044;-41
2021/06/29 01:53:18;;;;;;;27.83;17.30;;;21.00;99.90;;;;;;5051033;28;20056;-41
2021/06/29 01:55:45;;;;;;;25.35;17.75;;;20.90;99.90;;;;;;5057829;28;20017;-40
2021/06/29 01:58:13;;;;;;;29.80;21.05;;;20.90;99.90;;;;;;5054026;28;20021;-40
2021/06/29 02:00:38;;;;;;;26.38;18.60;;;20.80;99.90;;;;;;5055790;28;20070;-42
2021/06/29 02:03:04;;;;;;;25.85;18.73;;;20.70;99.90;;;;;;5055407;28;20443;-40
2021/06/29 02:05:30;;;;;;;24.52;18.88;;;20.50;99.90;;;;;;5053666;28;20055;-42
2021/06/29 02:07:55;;;;;;;25.48;19.20;;;20.40;99.90;;;;;;5058091;28;20059;-41
2021/06/29 02:10:21;;;;;;;24.10;19.13;;;20.40;99.90;;;;;;5050841;28;20033;-41
2021/06/29 02:12:46;;;;;;;27.80;19.27;;;20.30;99.90;;;;;;5060154;28;20043;-40
2021/06/29 02:15:12;;;;;;;22.25;17.63;;;20.30;99.90;;;;;;5050828;28;20104;-41
2021/06/29 02:17:38;;;;;;;23.55;18.13;;;20.30;99.90;;;;;;5060561;28;20048;-42
2021/06/29 02:20:07;;;;;;;26.73;18.40;;;20.30;99.90;;;;;;5049461;28;20040;-41
2021/06/29 02:22:32;;;;;;;24.95;17.95;;;20.30;99.90;;;;;;5061856;28;20429;-41
2021/06/29 02:25:01;;;;;;;21.63;17.25;;;20.30;99.90;;;;;;5049923;28;20025;-42
2021/06/29 02:27:29;;;;;;;21.77;17.88;;;20.30;99.90;;;;;;5056771;28;20025;-42
2021/06/29 02:29:58;;;;;;;26.23;17.90;;;20.40;99.90;;;;;;5068918;28;20372;-42
2021/06/29 02:32:25;;;;;;;22.20;18.17;;;20.40;99.90;;;;;;5038813;28;20021;-41
2021/06/29 02:34:50;;;;;;;18.33;16.23;;;20.40;99.90;;;;;;5069027;28;20037;-40
2021/06/29 02:37:16;;;;;;;17.98;15.85;;;20.40;99.90;;;;;;5058717;28;20150;-42
2021/06/29 02:39:41;;;;;;;20.52;16.90;;;20.40;99.90;;;;;;5066128;28;20032;-42
2021/06/29 02:42:07;;;;;;;19.30;16.42;;;20.40;99.90;;;;;;5061889;28;20325;-42
2021/06/29 02:44:36;;;;;;;21.88;17.23;;;20.40;99.90;;;;;;5063536;28;20384;-41
2021/06/29 02:47:03;;;;;;;18.65;15.82;;;20.40;99.90;;;;;;5062959;28;20371;-41
2021/06/29 02:49:28;;;;;;;17.70;15.80;;;20.30;99.90;;;;;;5061592;28;20492;-40
2021/06/29 02:51:54;;;;;;;25.05;17.52;;;20.40;99.90;;;;;;5065701;28;20043;-41
2021/06/29 02:54:22;;;;;;;20.73;17.50;;;20.40;99.90;;;;;;5058316;28;20074;-41
2021/06/29 02:56:48;;;;;;;26.25;17.83;;;20.40;99.90;;;;;;5067243;28;20025;-41
2021/06/29 02:59:15;;;;;;;23.80;17.67;;;20.40;99.90;;;;;;5057035;28;20036;-40
2021/06/29 03:01:42;;;;;;;23.00;18.13;;;20.40;99.90;;;;;;5066886;28;20020;-41
2021/06/29 03:04:08;;;;;;;23.55;19.00;;;20.40;99.90;;;;;;5057404;28;20377;-41
2021/06/29 03:06:34;;;;;;;23.10;18.67;;;20.40;99.90;;;;;;5068728;28;20027;-40
2021/06/29 03:09:01;;;;;;;21.10;16.83;;;20.30;99.90;;;;;;5055580;28;20020;-40
2021/06/29 03:11:27;;;;;;;18.45;14.52;;;20.30;99.90;;;;;;5068696;28;20116;-41
2021/06/29 03:13:55;;;;;;;19.90;16.65;;;20.30;99.90;;;;;;5055276;28;20127;-40
2021/06/29 03:16:21;;;;;;;21.13;16.15;;;20.30;99.90;;;;;;5068668;28;20075;-41
2021/06/29 03:18:47;;;;;;;17.10;14.68;;;20.40;99.90;;;;;;5057311;28;20499;-40
2021/06/29 03:21:12;;;;;;;18.33;15.02;;;20.40;99.90;;;;;;5066350;28;20078;-40
2021/06/29 03:23:38;;;;;;;19.30;15.95;;;20.50;99.90;;;;;;5060631;28;20027;-40
2021/06/29 03:26:04;;;;;;;18.23;16.25;;;20.50;99.90;;;;;;5053915;28;20384;-41
2021/06/29 03:28:30;;;;;;;20.98;17.08;;;20.50;99.90;;;;;;5053683;28;20426;-41
2021/06/29 03:30:56;;;;;;;20.90;16.50;;;20.50;99.90;;;;;;5054467;28;20037;-41
2021/06/29 03:33:21;;;;;;;20.42;17.08;;;20.50;99.90;;;;;;5051213;28;20021;-43
2021/06/29 03:35:47;;;;;;;20.15;17.00;;;20.60;99.90;;;;;;5057356;28;20025;-40
2021/06/29 03:38:12;;;;;;;21.23;17.90;;;20.60;99.90;;;;;;5049772;28;20063;-41
2021/06/29 03:40:41;;;;;;;18.88;15.85;;;20.60;99.90;;;;;;5059694;28;20166;-41
2021/06/29 03:43:06;;;;;;;19.90;16.00;;;20.60;99.90;;;;;;5048834;28;20033;-41
2021/06/29 03:45:35;;;;;;;18.85;16.50;;;20.60;99.90;;;;;;5059795;28;20044;-41
2021/06/29 03:48:00;;;;;;;17.52;15.48;;;20.60;99.90;;;;;;5047495;28;20025;-41
2021/06/29 03:50:26;;;;;;;20.70;16.10;;;20.70;99.90;;;;;;5059927;28;20036;-43
2021/06/29 03:52:53;;;;;;;20.92;15.88;;;20.70;99.90;;;;;;5048409;28;20093;-43
2021/06/29 03:55:18;;;;;;;19.15;15.23;;;20.80;99.90;;;;;;5059926;28;20538;-41
2021/06/29 03:57:44;;;;;;;20.25;15.77;;;20.80;99.90;;;;;;5047943;28;20013;-41
2021/06/29 04:00:10;;;;;;;19.42;16.10;;;20.80;99.90;;;;;;5058469;28;20032;-41
2021/06/29 04:02:36;;;;;;;22.15;17.15;;;20.80;99.90;;;;;;5048480;28;20032;-42
2021/06/29 04:05:03;;;;;;;20.23;16.88;;;20.80;99.90;;;;;;5054979;28;20326;-41
2021/06/29 04:07:29;;;;;;;21.15;16.58;;;20.80;99.90;;;;;;5051063;28;20378;-41
2021/06/29 04:09:55;;;;;;;20.85;16.02;;;20.80;99.90;;;;;;5051878;28;20170;-41
2021/06/29 04:12:20;;;;;;;18.75;15.48;;;20.90;99.90;;;;;;5054500;28;20187;-41
2021/06/29 04:14:49;;;;;;;17.63;14.77;;;20.90;99.90;;;;;;5049929;28;20325;-41
2021/06/29 04:17:15;;;;;;;18.73;15.93;;;20.90;99.90;;;;;;5055702;28;20046;-41
2021/06/29 04:19:41;;;;;;;20.02;16.63;;;20.90;99.90;;;;;;5048436;28;20017;-41
2021/06/29 04:22:07;;;;;;;20.00;16.20;;;20.90;99.90;;;;;;5058551;28;20384;-40
2021/06/29 04:24:33;;;;;;;19.35;16.35;;;20.80;99.90;;;;;;5047132;28;20025;-41
2021/06/29 04:26:59;;;;;;;21.42;16.52;;;20.80;99.90;;;;;;5046177;28;20769;-42
2021/06/29 04:29:25;;;;;;;19.20;16.23;;;20.80;99.90;;;;;;5047543;28;20098;-41
2021/06/29 04:31:51;;;;;;;21.98;17.05;;;20.80;99.90;;;;;;5057185;28;20111;-41
2021/06/29 04:34:16;;;;;;;19.85;16.30;;;20.80;99.90;;;;;;5045687;28;20115;-41
2021/06/29 04:36:42;;;;;;;19.58;16.98;;;20.80;99.90;;;;;;5057549;28;20032;-41
2021/06/29 04:39:07;;;;;;;22.65;17.10;;;20.80;99.90;;;;;;5045448;28;20143;-42
2021/06/29 04:41:33;;;;;;;20.52;16.55;;;20.90;99.90;;;;;;5057806;28;20105;-41
2021/06/29 04:44:09;;;;;;;25.27;18.50;;;20.90;99.90;;;;;;5048183;28;20040;-41
2021/06/29 04:46:34;;;;;;;19.75;15.93;;;20.90;99.90;;;;;;5056512;28;20032;-41
2021/06/29 04:49:06;;;;;;;21.15;17.73;;;20.90;99.90;;;;;;5049636;28;20025;-42
2021/06/29 04:51:32;;;;;;;24.80;17.92;;;20.90;99.90;;;;;;5054139;28;20194;-42
2021/06/29 04:54:03;;;;;;;17.98;14.95;;;20.90;99.90;;;;;;5051785;28;20536;-42
2021/06/29 04:56:29;;;;;;;20.80;15.57;;;20.90;99.90;;;;;;5052999;28;20035;-41
2021/06/29 04:58:57;;;;;;;19.38;14.98;;;20.90;99.90;;;;;;5052761;28;20353;-42
2021/06/29 05:01:23;;;;;;;18.55;16.40;;;20.90;99.90;;;;;;5050521;28;20288;-40
2021/06/29 05:03:50;;;;;;;20.90;17.58;;;20.90;99.90;;;;;;5055669;28;20029;-40
2021/06/29 05:06:16;;;;;;;18.73;15.32;;;20.90;99.90;;;;;;5047556;28;20499;-41
2021/06/29 05:08:42;;;;;;;18.00;16.10;;;20.90;99.90;;;;;;5057955;28;20021;-42
2021/06/29 05:11:08;;;;;;;17.50;14.55;;;20.90;99.90;;;;;;5047704;28;20040;-41
2021/06/29 05:13:33;;;;;;;16.63;14.82;;;20.90;99.90;;;;;;5056935;28;20045;-42
2021/06/29 05:15:59;;;;;;;16.38;14.52;;;21.00;99.90;;;;;;5046487;28;20093;-42
2021/06/29 05:18:24;;;;;;;17.42;15.38;;;21.00;99.90;;;;;;5059960;28;20025;-42
2021/06/29 05:20:50;;;;;;;19.58;16.35;;;21.10;99.90;;;;;;5050593;28;20029;-42
2021/06/29 05:23:16;;;;;;;18.23;16.13;;;21.10;99.90;;;;;;5062943;28;20017;-42
2021/06/29 05:25:41;;;;;;;17.50;15.38;;;21.20;99.90;;;;;;5048624;28;20056;-42
2021/06/29 05:28:10;;;;;;;17.67;14.98;;;21.20;99.90;;;;;;5057388;28;20349;-42
2021/06/29 05:30:36;;;;;;;19.15;16.52;;;21.20;99.90;;;;;;5069590;28;20036;-42
2021/06/29 05:33:07;;;;;;;19.60;17.23;;;21.20;99.90;;;;;;5061996;28;20096;-42
2021/06/29 05:35:33;;;;;;;20.45;17.75;;;21.20;99.90;;;;;;5062473;28;20094;-43
2021/06/29 05:37:59;;;;;;;18.55;15.32;;;21.20;99.90;;;;;;5053133;28;20021;-43
2021/06/29 05:40:24;;;;;;;17.38;14.40;;;21.20;99.90;;;;;;5052072;28;20588;-41
2021/06/29 05:42:50;;;;;;;13.52;11.75;;;21.20;99.90;;;;;;5053847;28;20056;-41
2021/06/29 05:45:15;;;;;;;19.00;15.95;;;21.20;99.90;;;;;;5057431;28;20060;-43
2021/06/29 05:47:42;;;;;;;18.05;14.60;;;21.20;99.90;;;;;;5049500;28;20476;-41
2021/06/29 05:50:13;;;;;;;18.48;16.42;;;21.20;99.90;;;;;;5060355;28;20025;-40
2021/06/29 05:52:39;;;;;;;20.67;17.38;;;21.20;99.90;;;;;;5046546;28;20036;-39
2021/06/29 05:55:06;;;;;;;22.58;16.50;;;21.20;99.90;;;;;;5057542;28;20014;-40
2021/06/29 05:57:32;;;;;;;17.30;15.27;;;21.20;99.90;;;;;;5049805;28;20028;-41
2021/06/29 05:59:58;;;;;;;17.88;14.88;;;21.20;99.90;;;;;;5059417;28;20759;-40
2021/06/29 06:02:24;;;;;;;15.88;14.00;;;21.20;99.90;;;;;;5049297;28;20029;-41
2021/06/29 06:04:49;;;;;;;19.63;16.45;;;21.30;99.90;;;;;;5060759;28;20373;-43
2021/06/29 06:07:15;;;;;;;20.85;16.65;;;21.30;99.90;;;;;;5049367;28;20047;-40
2021/06/29 06:09:40;;;;;;;20.50;17.80;;;21.40;99.90;;;;;;5060124;28;20472;-42
2021/06/29 06:12:06;;;;;;;19.40;16.48;;;21.50;99.90;;;;;;5048733;28;20496;-41
2021/06/29 06:14:35;;;;;;;23.00;17.80;;;21.60;99.90;;;;;;5058773;28;20055;-42
2021/06/29 06:17:00;;;;;;;21.92;18.75;;;21.60;99.90;;;;;;5050562;28;20122;-41
2021/06/29 06:19:26;;;;;;;22.92;19.15;;;21.70;99.90;;;;;;5055427;28;20099;-38
2021/06/29 06:21:51;;;;;;;22.63;17.95;;;21.70;99.90;;;;;;5052442;28;20091;-40
2021/06/29 06:24:17;;;;;;;24.92;19.90;;;21.80;99.90;;;;;;5052246;28;20054;-41
2021/06/29 06:26:42;;;;;;;20.00;17.80;;;21.80;99.90;;;;;;5055472;28;20040;-39
2021/06/29 06:29:08;;;;;;;22.98;18.63;;;21.80;99.90;;;;;;5050931;28;20024;-38
2021/06/29 06:31:34;;;;;;;19.50;16.50;;;21.80;99.90;;;;;;5040370;28;20041;-41
2021/06/29 06:33:59;;;;;;;22.92;17.63;;;21.80;99.90;;;;;;5051218;28;20539;-41
2021/06/29 06:36:25;;;;;;;19.67;17.38;;;21.90;99.90;;;;;;5058333;28;20107;-39
2021/06/29 06:38:50;;;;;;;21.17;17.08;;;21.90;99.90;;;;;;5066678;28;20040;-41
2021/06/29 06:41:16;;;;;;;21.90;18.30;;;21.80;99.90;;;;;;5055071;28;20103;-42
2021/06/29 06:43:42;;;;;;;23.95;20.23;;;21.90;99.90;;;;;;5068037;28;20655;-42
2021/06/29 06:46:09;;;;;;;23.13;18.52;;;21.90;99.90;;;;;;5053542;28;20457;-41
2021/06/29 06:48:36;;;;;;;19.02;16.52;;;21.90;99.90;;;;;;5067696;28;20048;-39
2021/06/29 06:51:01;;;;;;;20.63;17.10;;;21.90;99.90;;;;;;5054305;28;20378;-41
2021/06/29 06:53:27;;;;;;;24.55;20.67;;;21.90;99.90;;;;;;5066204;28;20027;-42
2021/06/29 06:55:52;;;;;;;25.60;21.35;;;22.00;99.90;;;;;;5059467;28;20111;-42
2021/06/29 06:58:18;;;;;;;23.52;19.38;;;22.10;99.90;;;;;;5065268;28;20024;-41
2021/06/29 07:00:43;;;;;;;21.63;18.50;;;22.10;99.90;;;;;;5061931;28;20083;-41
2021/06/29 07:03:09;;;;;;;26.33;21.65;;;22.20;99.90;;;;;;5063143;28;20519;-41
2021/06/29 07:05:34;;;;;;;26.85;22.58;;;22.20;99.90;;;;;;5065004;28;20044;-41
2021/06/29 07:08:00;;;;;;;23.08;19.35;;;22.20;99.90;;;;;;5059602;28;20023;-41
2021/06/29 07:10:25;;;;;;;30.50;24.45;;;22.20;99.90;;;;;;5067587;28;20064;-44
2021/06/29 07:12:51;;;;;;;26.42;21.98;;;22.10;99.90;;;;;;5056394;28;20131;-41
2021/06/29 07:15:16;;;;;;;26.17;21.83;;;22.00;99.90;;;;;;5053537;28;20048;-40
2021/06/29 07:17:42;;;;;;;25.42;21.70;;;22.00;99.90;;;;;;5059468;28;20071;-41
2021/06/29 07:20:08;;;;;;;28.38;22.52;;;21.90;99.90;;;;;;5047927;28;20032;-41
2021/06/29 07:22:35;;;;;;;26.98;21.98;;;21.80;99.90;;;;;;5060558;28;20028;-41
2021/06/29 07:25:05;;;;;;;25.80;22.10;;;21.80;99.90;;;;;;5048005;28;20071;-41
2021/06/29 07:27:30;;;;;;;22.50;19.00;;;21.70;99.90;;;;;;5054309;28;20470;-39
2021/06/29 07:29:56;;;;;;;20.77;18.30;;;21.70;99.90;;;;;;5067706;28;20503;-42
2021/06/29 07:32:21;;;;;;;21.48;18.73;;;21.70;99.90;;;;;;5056360;28;20512;-41
2021/06/29 07:34:47;;;;;;;22.10;19.17;;;21.70;99.90;;;;;;5066459;28;20476;-42
2021/06/29 07:37:12;;;;;;;26.00;23.20;;;21.70;99.90;;;;;;5058384;28;20352;-41
2021/06/29 07:39:38;;;;;;;25.83;20.13;;;21.70;99.90;;;;;;5065167;28;20081;-42
2021/06/29 07:42:04;;;;;;;32.13;21.67;;;21.70;99.90;;;;;;5059402;28;20025;-42
2021/06/29 07:44:29;;;;;;;27.55;23.83;;;21.60;99.90;;;;;;5061576;28;20060;-42
2021/06/29 07:46:57;;;;;;;24.63;20.70;;;21.50;99.90;;;;;;5056795;28;20036;-41
2021/06/29 07:49:24;;;;;;;24.73;20.67;;;21.40;99.90;;;;;;5056679;28;20032;-42
2021/06/29 07:51:49;;;;;;;25.67;19.92;;;21.40;99.90;;;;;;5064990;28;20098;-40
2021/06/29 07:54:15;;;;;;;26.98;21.45;;;21.30;99.90;;;;;;5056643;28;20391;-41
2021/06/29 07:56:41;;;;;;;21.67;19.15;;;21.30;99.90;;;;;;5064169;28;20072;-42
2021/06/29 07:59:09;;;;;;;23.63;20.77;;;21.30;99.90;;;;;;5052871;28;20044;-42
2021/06/29 08:01:34;;;;;;;22.77;20.30;;;21.30;99.90;;;;;;5042469;28;20034;-42
2021/06/29 08:04:00;;;;;;;20.65;18.45;;;21.30;99.90;;;;;;5059539;28;20025;-41
2021/06/29 08:06:26;;;;;;;20.50;17.67;;;21.30;99.90;;;;;;5044534;28;20425;-40
2021/06/29 08:08:51;;;;;;;19.35;17.35;;;21.40;99.90;;;;;;5059633;28;20055;-41
2021/06/29 08:11:17;;;;;;;20.83;18.55;;;21.50;99.90;;;;;;5047339;28;20039;-41
2021/06/29 08:13:43;;;;;;;23.60;20.10;;;21.50;99.90;;;;;;5058344;28;20032;-41
2021/06/29 08:16:09;;;;;;;26.77;22.92;;;21.60;99.90;;;;;;5028400;28;20487;-41
2021/06/29 08:18:36;;;;;;;28.27;23.90;;;21.70;99.90;;;;;;5048515;28;20444;-40
2021/06/29 08:21:02;;;;;;;29.58;24.00;;;21.90;99.90;;;;;;5039567;28;20128;-40
2021/06/29 08:23:31;;;;;;;24.42;21.38;;;22.00;99.90;;;;;;5046841;28;20021;-42
2021/06/29 08:25:57;;;;;;;25.92;20.58;;;22.00;99.90;;;;;;5057501;28;20020;-41
2021/06/29 08:28:22;;;;;;;27.65;23.33;;;21.90;99.90;;;;;;5061143;28;20109;-42
2021/06/29 08:30:50;;;;;;;24.02;20.83;;;21.80;99.90;;;;;;5038488;28;20036;-42
2021/06/29 08:33:20;;;;;;;26.45;21.58;;;21.80;99.90;;;;;;5063267;28;20052;-42
2021/06/29 08:35:46;;;;;;;29.70;23.58;;;21.70;99.90;;;;;;5047402;28;20083;-42
2021/06/29 08:38:12;;;;;;;25.80;22.25;;;21.70;99.90;;;;;;5045713;28;20129;-41
2021/06/29 08:40:39;;;;;;;22.42;18.40;;;21.60;99.90;;;;;;5054216;28;20024;-41
2021/06/29 08:43:05;;;;;;;22.05;19.65;;;21.50;99.90;;;;;;5044283;28;20021;-40
2021/06/29 08:45:32;;;;;;;20.15;18.05;;;21.50;99.90;;;;;;5051860;28;20436;-40
2021/06/29 08:48:02;;;;;;;21.15;18.83;;;21.40;99.90;;;;;;5043350;28;20013;-41
2021/06/29 08:50:31;;;;;;;30.45;24.45;;;21.40;99.90;;;;;;5057180;28;20387;-40
2021/06/29 08:52:58;;;;;;;24.85;21.20;;;21.40;99.90;;;;;;5045011;28;20229;-41
2021/06/29 08:55:36;;;;;;;28.85;23.38;;;21.30;99.90;;;;;;5058924;28;20025;-42
2021/06/29 08:58:02;;;;;;;21.88;19.52;;;21.20;99.90;;;;;;5045784;28;20029;-41
2021/06/29 09:00:28;;;;;;;28.35;24.42;;;21.10;99.90;;;;;;5059286;28;20463;-41
2021/06/29 09:02:53;;;;;;;23.83;20.92;;;21.00;99.90;;;;;;5046467;28;20643;-42
2021/06/29 09:05:24;;;;;;;26.35;21.58;;;20.90;99.90;;;;;;5056826;28;20034;-40
2021/06/29 09:08:07;;;;;;;33.28;26.55;;;20.80;99.90;;;;;;5047294;28;20025;-41
2021/06/29 09:10:34;;;;;;;29.52;24.52;;;20.90;99.90;;;;;;5056827;28;20157;-42
2021/06/29 09:13:07;;;;;;;30.83;25.58;;;20.90;99.90;;;;;;5045714;28;20064;-42
2021/06/29 09:15:38;;;;;;;26.48;23.15;;;20.80;99.90;;;;;;5055744;28;20140;-41
2021/06/29 09:18:04;;;;;;;32.13;26.58;;;20.90;99.90;;;;;;5048458;28;20521;-41
2021/06/29 09:20:31;;;;;;;40.08;30.88;;;20.90;99.90;;;;;;5053357;28;20036;-41
2021/06/29 09:23:06;;;;;;;36.83;30.77;;;21.00;99.90;;;;;;5050568;28;20032;-42
2021/06/29 09:25:32;;;;;;;33.03;27.17;;;21.00;99.90;;;;;;5051376;28;20025;-41
2021/06/29 09:27:57;;;;;;;29.98;25.58;;;21.10;99.90;;;;;;5045920;28;20450;-40
2021/06/29 09:30:46;;;;;;;28.42;24.55;;;21.20;99.90;;;;;;5050099;28;20025;-42
2021/06/29 09:33:16;;;;;;;34.50;27.35;;;21.30;99.90;;;;;;5060073;28;20029;-42
2021/06/29 09:35:45;;;;;;;38.10;31.08;;;21.50;99.90;;;;;;5060147;28;20449;-41
2021/06/29 09:38:19;;;;;;;30.98;26.05;;;21.60;99.90;;;;;;5058935;28;20119;-42
2021/06/29 09:40:46;;;;;;;30.33;25.58;;;21.80;99.90;;;;;;5061591;28;20489;-42
2021/06/29 09:43:14;;;;;;;36.13;28.30;;;22.00;99.90;;;;;;5057845;28;20127;-42
2021/06/29 09:45:48;;;;;;;33.63;28.45;;;22.20;99.90;;;;;;5064064;28;20021;-42
2021/06/29 09:48:27;;;;;;;31.20;26.70;;;22.20;99.90;;;;;;5056115;28;20031;-42
2021/06/29 09:50:54;;;;;;;30.35;25.60;;;22.20;99.90;;;;;;5063968;28;20100;-42
2021/06/29 09:53:32;;;;;;;37.33;30.38;;;22.30;99.90;;;;;;5056708;28;20047;-40
2021/06/29 09:56:01;;;;;;;33.38;26.35;;;22.50;99.90;;;;;;5063695;28;20013;-40
2021/06/29 09:58:28;;;;;;;36.17;29.42;;;22.60;99.90;;;;;;5043953;28;20059;-40
2021/06/29 10:00:59;;;;;;;30.92;26.05;;;22.80;99.90;;;;;;5064183;28;20017;-40
2021/06/29 10:03:37;;;;;;;27.75;24.52;;;22.90;99.90;;;;;;5055450;28;20075;-43
2021/06/29 10:06:16;;;;;;;31.25;25.75;;;23.00;99.90;;;;;;5065963;28;20028;-41
2021/06/29 10:08:44;;;;;;;26.45;23.45;;;23.10;99.90;;;;;;5057817;28;20560;-41
2021/06/29 10:11:21;;;;;;;25.58;21.92;;;23.20;99.90;;;;;;5068151;28;20068;-42
2021/06/29 10:13:48;;;;;;;26.85;24.02;;;23.40;99.90;;;;;;5057770;28;20445;-41
2021/06/29 10:16:16;;;;;;;29.15;25.33;;;23.40;99.90;;;;;;5067674;28;20391;-41
2021/06/29 10:18:54;;;;;;;25.83;23.13;;;23.30;99.90;;;;;;5058505;28;20059;-41
2021/06/29 10:21:24;;;;;;;27.02;24.23;;;23.30;99.90;;;;;;5068728;28;20024;-40
2021/06/29 10:24:07;;;;;;;23.85;21.55;;;23.40;99.90;;;;;;5060150;28;20039;-41
2021/06/29 10:26:35;;;;;;;25.05;22.55;;;23.40;99.90;;;;;;5057569;28;20036;-40
2021/06/29 10:29:02;;;;;;;23.83;21.42;;;23.40;99.90;;;;;;5056616;28;20418;-41
2021/06/29 10:31:31;;;;;;;20.23;17.92;;;23.30;99.90;;;;;;5048930;28;20029;-40
2021/06/29 10:34:02;;;;;;;20.90;18.80;;;23.20;99.90;;;;;;5054815;28;20012;-41
2021/06/29 10:36:31;;;;;;;21.70;19.42;;;23.10;99.90;;;;;;5068915;28;20052;-41
2021/06/29 10:38:58;;;;;;;20.60;17.75;;;23.10;99.90;;;;;;5055676;28;20495;-40
2021/06/29 10:41:26;;;;;;;18.20;16.40;;;23.10;99.90;;;;;;5069087;28;20021;-42
2021/06/29 10:43:53;;;;;;;20.15;18.15;;;23.00;99.90;;;;;;5055633;28;20067;-41
2021/06/29 10:46:28;;;;;;;20.27;18.08;;;23.00;99.90;;;;;;5029259;28;20022;-40
2021/06/29 10:48:54;;;;;;;22.33;20.05;;;23.00;99.90;;;;;;5052554;28;20024;-43
2021/06/29 10:51:36;;;;;;;21.25;19.05;;;22.80;99.90;;;;;;5046556;28;20041;-40
2021/06/29 10:54:02;;;;;;;21.33;19.10;;;22.60;99.90;;;;;;5054758;28;20021;-41
2021/06/29 10:56:52;;;;;;;23.40;21.10;;;22.40;99.90;;;;;;5050081;28;20036;-40
2021/06/29 10:59:18;;;;;;;22.60;20.30;;;22.20;99.90;;;;;;5059617;28;20020;-41
2021/06/29 11:01:54;;;;;;;18.38;16.63;;;22.20;99.90;;;;;;5049662;28;20036;-41
2021/06/29 11:04:54;;;;;;;22.77;20.58;;;22.20;99.90;;;;;;5059357;28;20016;-41
2021/06/29 11:07:45;;;;;;;26.58;23.88;;;22.20;99.90;;;;;;5028765;28;20032;-41
2021/06/29 11:10:31;;;;;;;28.75;25.65;;;22.30;99.90;;;;;;5053186;28;20057;-43
2021/06/29 11:12:59;;;;;;;27.15;24.17;;;22.20;99.90;;;;;;5046695;28;20559;-42
2021/06/29 11:15:49;;;;;;;21.35;19.25;;;22.10;99.90;;;;;;5055456;28;20051;-42
2021/06/29 11:18:17;;;;;;;19.25;17.25;;;22.20;99.90;;;;;;5066561;28;20058;-42
2021/06/29 11:20:54;;;;;;;26.25;23.55;;;22.50;99.90;;;;;;5055134;28;20021;-41
2021/06/29 11:23:22;;;;;;;24.20;21.65;;;22.60;99.90;;;;;;5049051;28;20040;-41
2021/06/29 11:25:53;;;;;;;23.73;21.33;;;22.70;99.90;;;;;;5061335;28;20033;-42
2021/06/29 11:28:37;;;;;;;22.65;20.38;;;22.70;99.90;;;;;;5068064;28;20020;-41
2021/06/29 11:31:22;;;;;;;21.00;18.85;;;22.90;99.90;;;;;;5055463;28;20044;-41
2021/06/29 11:34:08;;;;;;;21.50;19.30;;;23.10;99.90;;;;;;5048509;28;20037;-42
2021/06/29 11:36:37;;;;;;;19.50;17.60;;;23.30;99.90;;;;;;5058060;28;20059;-40
2021/06/29 11:39:17;;;;;;;21.52;19.33;;;23.30;99.90;;;;;;5048886;28;20462;-41
2021/06/29 11:41:55;;;;;;;19.23;17.33;;;23.20;99.90;;;;;;5058339;28;20052;-41
2021/06/29 11:44:20;;;;;;;16.27;14.55;;;23.10;99.90;;;;;;5048980;28;20440;-41
2021/06/29 11:46:52;;;;;;;17.08;15.43;;;23.10;99.90;;;;;;5058120;28;20020;-41
2021/06/29 11:49:27;;;;;;;15.32;13.82;;;23.30;99.90;;;;;;5048977;28;20025;-41
2021/06/29 11:51:56;;;;;;;15.13;13.73;;;23.50;99.90;;;;;;5056298;28;20052;-41
2021/06/29 11:54:32;;;;;;;14.60;13.30;;;23.80;99.90;;;;;;5047802;28;20017;-41
2021/06/29 11:57:12;;;;;;;14.30;13.00;;;24.00;99.40;;;;;;5054814;28;20029;-40
2021/06/29 11:59:38;;;;;;;13.52;11.95;;;24.20;99.10;;;;;;5049003;28;20048;-41
2021/06/29 12:02:07;;;;;;;15.88;13.27;;;24.30;99.10;;;;;;5057752;28;20472;-44
2021/06/29 12:04:33;;;;;;;15.18;13.77;;;24.50;98.10;;;;;;5047715;28;20021;-41
2021/06/29 12:07:03;;;;;;;12.18;10.93;;;24.40;97.30;;;;;;5059657;28;20379;-41
2021/06/29 12:09:33;;;;;;;10.73;9.63;;;24.30;98.00;;;;;;5046988;28;20025;-41
2021/06/29 12:12:28;;;;;;;14.70;13.18;;;24.20;98.40;;;;;;5058850;28;20059;-41
2021/06/29 12:14:58;;;;;;;12.98;11.75;;;24.20;97.80;;;;;;5025265;28;20121;-40
2021/06/29 12:17:24;;;;;;;14.10;12.63;;;24.20;98.30;;;;;;5059592;28;20029;-42
2021/06/29 12:20:00;;;;;;;14.50;12.35;;;24.20;98.00;;;;;;5047195;28;20025;-40
2021/06/29 12:22:33;;;;;;;13.52;12.13;;;24.30;97.90;;;;;;5059003;28;20021;-40
2021/06/29 12:24:58;;;;;;;11.80;10.70;;;24.30;97.30;;;;;;5046698;28;20021;-41
2021/06/29 12:27:25;;;;;;;12.68;11.18;;;24.20;97.50;;;;;;5059718;28;20025;-41
2021/06/29 12:29:50;;;;;;;12.27;10.07;;;24.30;97.40;;;;;;5046016;28;20488;-40
2021/06/29 12:32:19;;;;;;;10.65;9.55;;;24.40;97.70;;;;;;5042663;28;20110;-41
2021/06/29 12:34:46;;;;;;;10.05;9.15;;;24.50;97.90;;;;;;5039259;28;20018;-41